BIRK

Reykjavik Airport

Reykjavik, Iceland
TAF BIRK 200048Z 2003/2103 14015G25KT 9999 RA SCT025 BKN030 TX09/2006Z TN05/2103Z TEMPO 2003/2009 8000 RADZ BKN015 OVC030 PROB40 2004/2008 3000 RADZ OVC006 BECMG 2007/2009 21015G25KT BECMG 2009/2012 22025G40KT 9999 SHRA FEW015 BKN030
Issued Valid From Valid To
Oct-20 @ 00:48 UTC
(2 hours ago)
Oct-20 @ 03:00 UTC
(16 minutes ago)
Oct-21 @ 03:00 UTC
(in 24 hours)
Oct-20 @ 03:00 to Oct-20 @ 07:00
TAF BIRK 200048Z 2003/2103 14015G25KT 9999 RA SCT025 BKN030 TX09/2006Z TN05/2103Z
Wind Visibility Clouds Conditions
140° at 15 knots
 Gusting to 25 knots
10,000+ meters
  • Scattered at 2,500' AGL
  • Broken at 3,000' AGL
  • Rain
Temporary Oct-20 @ 03:00 to Oct-20 @ 09:00
TEMPO 2003/2009 8000 RADZ BKN015 OVC030
Visibility Clouds Conditions
7,998 meters
  • Broken at 1,500' AGL
  • Overcast at 3,000' AGL
  • Rain
  • Drizzle
Probable  (Probability 40%) Oct-20 @ 04:00 to Oct-20 @ 08:00
PROB40 2004/2008 3000 RADZ OVC006
Visibility Clouds Conditions
2,993 meters
  • Overcast at 600' AGL
  • Rain
  • Drizzle
Becoming Oct-20 @ 07:00 to Oct-20 @ 09:00
BECMG 2007/2009 21015G25KT
Wind Visibility Clouds Conditions
210° at 15 knots
 Gusting to 25 knots
10,000+ meters
  • Scattered at 2,500' AGL
  • Broken at 3,000' AGL
  • Rain
Becoming Oct-20 @ 09:00 to Oct-21 @ 03:00
BECMG 2009/2012 22025G40KT 9999 SHRA FEW015 BKN030
Wind Visibility Clouds Conditions
220° at 25 knots
 Gusting to 40 knots
10,000+ meters
  • Few at 1,500' AGL
  • Broken at 3,000' AGL
  • Rain
TAF BIRK 200048Z 2003/2103 14015G25KT 9999 RA SCT025 BKN030 TX09/2006Z TN05/2103Z TEMPO 2003/2009 8000 RADZ BKN015 OVC030 PROB40 2004/2008 3000 RADZ OVC006 BECMG 2007/2009 21015G25KT BECMG 2009/2012 22025G40KT 9999 SHRA FEW015 BKN030
Issued Oct-20 @ 00:48 UTC
(2 hours ago)
Valid From Oct-20 @ 03:00 UTC
(16 minutes ago)
Valid To Oct-21 @ 03:00 UTC
(in 24 hours)
Oct-20 @ 03:00 - Oct-20 @ 07:00
Wind Visibility
140° at 15 knots
 Gusting to 25 knots
10,000+ meters
Clouds
  • Scattered at 2,500' AGL
  • Broken at 3,000' AGL
Conditions
  • Rain
Temporary Oct-20 @ 03:00 - Oct-20 @ 09:00
Clouds
  • Broken at 1,500' AGL
  • Overcast at 3,000' AGL
Conditions
  • Rain
  • Drizzle
Probability 40% Probable Oct-20 @ 04:00 - Oct-20 @ 08:00
Clouds
  • Overcast at 600' AGL
Conditions
  • Rain
  • Drizzle
Becoming Oct-20 @ 07:00 - Oct-20 @ 09:00
Wind Visibility
210° at 15 knots
 Gusting to 25 knots
10,000+ meters
Clouds
  • Scattered at 2,500' AGL
  • Broken at 3,000' AGL
Conditions
  • Rain
Becoming Oct-20 @ 09:00 - Oct-21 @ 03:00
Wind Visibility
220° at 25 knots
 Gusting to 40 knots
10,000+ meters
Clouds
  • Few at 1,500' AGL
  • Broken at 3,000' AGL
Conditions
  • Rain